sensor_id;sensor_type;location;lat;lon;timestamp;P1;durP1;ratioP1;P2;durP2;ratioP2
16800;SDS011;8518;53.236;10.384;2022-12-18T00:00:47;15.83;;;11.10;;
16800;SDS011;8518;53.236;10.384;2022-12-18T00:03:13;18.33;;;10.80;;
16800;SDS011;8518;53.236;10.384;2022-12-18T00:05:47;19.33;;;11.77;;
16800;SDS011;8518;53.236;10.384;2022-12-18T00:08:13;21.27;;;11.30;;
16800;SDS011;8518;53.236;10.384;2022-12-18T00:10:40;17.50;;;10.77;;
16800;SDS011;8518;53.236;10.384;2022-12-18T00:13:05;18.37;;;12.30;;
16800;SDS011;8518;53.236;10.384;2022-12-18T00:15:33;17.70;;;11.70;;
16800;SDS011;8518;53.236;10.384;2022-12-18T00:17:59;18.43;;;11.67;;
16800;SDS011;8518;53.236;10.384;2022-12-18T00:20:25;18.90;;;11.07;;
16800;SDS011;8518;53.236;10.384;2022-12-18T00:22:51;17.93;;;10.90;;
16800;SDS011;8518;53.236;10.384;2022-12-18T00:25:17;18.83;;;11.67;;
16800;SDS011;8518;53.236;10.384;2022-12-18T00:27:43;18.43;;;11.57;;
16800;SDS011;8518;53.236;10.384;2022-12-18T00:30:09;16.87;;;10.77;;
16800;SDS011;8518;53.236;10.384;2022-12-18T00:32:35;24.13;;;12.83;;
16800;SDS011;8518;53.236;10.384;2022-12-18T00:35:01;17.23;;;12.17;;
16800;SDS011;8518;53.236;10.384;2022-12-18T00:37:27;22.07;;;13.10;;
16800;SDS011;8518;53.236;10.384;2022-12-18T00:39:52;19.90;;;12.33;;
16800;SDS011;8518;53.236;10.384;2022-12-18T00:42:18;16.93;;;12.07;;
16800;SDS011;8518;53.236;10.384;2022-12-18T00:45:02;18.37;;;11.60;;
16800;SDS011;8518;53.236;10.384;2022-12-18T00:47:28;20.80;;;12.37;;
16800;SDS011;8518;53.236;10.384;2022-12-18T00:49:54;20.50;;;12.40;;
16800;SDS011;8518;53.236;10.384;2022-12-18T00:52:19;20.80;;;12.67;;
16800;SDS011;8518;53.236;10.384;2022-12-18T00:54:45;17.67;;;11.63;;
16800;SDS011;8518;53.236;10.384;2022-12-18T00:57:10;16.70;;;11.80;;
16800;SDS011;8518;53.236;10.384;2022-12-18T00:59:36;19.73;;;12.47;;
16800;SDS011;8518;53.236;10.384;2022-12-18T01:02:02;21.20;;;13.03;;
16800;SDS011;8518;53.236;10.384;2022-12-18T01:04:27;18.33;;;12.53;;
16800;SDS011;8518;53.236;10.384;2022-12-18T01:06:55;22.03;;;12.40;;
16800;SDS011;8518;53.236;10.384;2022-12-18T01:09:21;16.30;;;11.73;;
16800;SDS011;8518;53.236;10.384;2022-12-18T01:11:46;20.20;;;13.03;;
16800;SDS011;8518;53.236;10.384;2022-12-18T01:14:12;19.03;;;11.90;;
16800;SDS011;8518;53.236;10.384;2022-12-18T01:16:38;19.27;;;11.90;;
16800;SDS011;8518;53.236;10.384;2022-12-18T01:19:03;17.93;;;11.63;;
16800;SDS011;8518;53.236;10.384;2022-12-18T01:21:29;18.67;;;12.30;;
16800;SDS011;8518;53.236;10.384;2022-12-18T01:23:55;17.10;;;11.87;;
16800;SDS011;8518;53.236;10.384;2022-12-18T01:26:21;21.23;;;12.43;;
16800;SDS011;8518;53.236;10.384;2022-12-18T01:28:47;17.77;;;11.73;;
16800;SDS011;8518;53.236;10.384;2022-12-18T01:31:23;17.50;;;11.60;;
16800;SDS011;8518;53.236;10.384;2022-12-18T01:33:51;17.90;;;12.17;;
16800;SDS011;8518;53.236;10.384;2022-12-18T01:36:18;17.87;;;11.23;;
16800;SDS011;8518;53.236;10.384;2022-12-18T01:38:52;18.83;;;11.80;;
16800;SDS011;8518;53.236;10.384;2022-12-18T01:41:23;17.50;;;11.60;;
16800;SDS011;8518;53.236;10.384;2022-12-18T01:43:54;20.93;;;12.17;;
16800;SDS011;8518;53.236;10.384;2022-12-18T01:46:22;20.90;;;12.60;;
16800;SDS011;8518;53.236;10.384;2022-12-18T01:48:50;17.93;;;12.03;;
16800;SDS011;8518;53.236;10.384;2022-12-18T01:51:26;18.63;;;11.13;;
16800;SDS011;8518;53.236;10.384;2022-12-18T01:53:54;21.73;;;12.47;;
16800;SDS011;8518;53.236;10.384;2022-12-18T01:56:20;18.30;;;11.73;;
16800;SDS011;8518;53.236;10.384;2022-12-18T02:01:30;15.43;;;10.87;;
16800;SDS011;8518;53.236;10.384;2022-12-18T02:03:56;18.53;;;11.80;;
16800;SDS011;8518;53.236;10.384;2022-12-18T02:06:54;17.73;;;11.63;;
16800;SDS011;8518;53.236;10.384;2022-12-18T02:09:34;17.20;;;11.50;;
16800;SDS011;8518;53.236;10.384;2022-12-18T02:12:10;16.73;;;12.13;;
16800;SDS011;8518;53.236;10.384;2022-12-18T02:17:35;22.07;;;12.63;;
16800;SDS011;8518;53.236;10.384;2022-12-18T02:20:19;21.27;;;11.43;;
16800;SDS011;8518;53.236;10.384;2022-12-18T02:28:30;19.03;;;11.83;;
16800;SDS011;8518;53.236;10.384;2022-12-18T02:31:01;20.40;;;12.70;;
16800;SDS011;8518;53.236;10.384;2022-12-18T02:33:29;16.60;;;11.17;;
16800;SDS011;8518;53.236;10.384;2022-12-18T02:35:57;18.07;;;11.43;;
16800;SDS011;8518;53.236;10.384;2022-12-18T02:38:25;21.50;;;11.87;;
16800;SDS011;8518;53.236;10.384;2022-12-18T02:40:51;20.47;;;13.20;;
16800;SDS011;8518;53.236;10.384;2022-12-18T02:43:19;19.80;;;12.80;;
16800;SDS011;8518;53.236;10.384;2022-12-18T02:45:48;21.67;;;12.40;;
16800;SDS011;8518;53.236;10.384;2022-12-18T02:48:28;20.60;;;12.57;;
16800;SDS011;8518;53.236;10.384;2022-12-18T02:51:11;19.10;;;12.20;;
16800;SDS011;8518;53.236;10.384;2022-12-18T02:53:50;23.03;;;11.67;;
16800;SDS011;8518;53.236;10.384;2022-12-18T02:56:34;23.87;;;13.97;;
16800;SDS011;8518;53.236;10.384;2022-12-18T02:59:11;19.97;;;12.90;;
16800;SDS011;8518;53.236;10.384;2022-12-18T03:01:51;22.47;;;13.17;;
16800;SDS011;8518;53.236;10.384;2022-12-18T03:04:26;23.23;;;14.73;;
16800;SDS011;8518;53.236;10.384;2022-12-18T03:06:58;20.13;;;13.90;;
16800;SDS011;8518;53.236;10.384;2022-12-18T03:09:31;20.07;;;12.97;;
16800;SDS011;8518;53.236;10.384;2022-12-18T03:12:04;19.73;;;12.73;;
16800;SDS011;8518;53.236;10.384;2022-12-18T03:14:54;21.83;;;13.03;;
16800;SDS011;8518;53.236;10.384;2022-12-18T03:17:20;23.17;;;13.77;;
16800;SDS011;8518;53.236;10.384;2022-12-18T03:19:50;21.67;;;12.83;;
16800;SDS011;8518;53.236;10.384;2022-12-18T03:22:18;21.83;;;14.23;;
16800;SDS011;8518;53.236;10.384;2022-12-18T03:24:45;21.83;;;13.40;;
16800;SDS011;8518;53.236;10.384;2022-12-18T03:27:13;21.90;;;13.17;;
16800;SDS011;8518;53.236;10.384;2022-12-18T03:30:03;20.23;;;13.43;;
16800;SDS011;8518;53.236;10.384;2022-12-18T03:32:39;22.23;;;13.43;;
16800;SDS011;8518;53.236;10.384;2022-12-18T03:35:21;22.37;;;13.50;;
16800;SDS011;8518;53.236;10.384;2022-12-18T03:37:51;20.53;;;11.97;;
16800;SDS011;8518;53.236;10.384;2022-12-18T03:40:21;20.77;;;13.00;;
16800;SDS011;8518;53.236;10.384;2022-12-18T03:42:52;20.50;;;13.00;;
16800;SDS011;8518;53.236;10.384;2022-12-18T03:45:34;18.07;;;11.83;;
16800;SDS011;8518;53.236;10.384;2022-12-18T03:48:07;20.50;;;12.93;;
16800;SDS011;8518;53.236;10.384;2022-12-18T03:55:57;23.10;;;13.37;;
16800;SDS011;8518;53.236;10.384;2022-12-18T03:58:25;21.67;;;13.03;;
16800;SDS011;8518;53.236;10.384;2022-12-18T04:00:53;20.67;;;13.10;;
16800;SDS011;8518;53.236;10.384;2022-12-18T04:03:21;21.40;;;13.10;;
16800;SDS011;8518;53.236;10.384;2022-12-18T04:05:49;22.83;;;13.57;;
16800;SDS011;8518;53.236;10.384;2022-12-18T04:08:17;20.97;;;13.30;;
16800;SDS011;8518;53.236;10.384;2022-12-18T04:10:44;21.20;;;12.40;;
16800;SDS011;8518;53.236;10.384;2022-12-18T04:13:10;23.10;;;13.47;;
16800;SDS011;8518;53.236;10.384;2022-12-18T04:15:36;24.73;;;14.33;;
16800;SDS011;8518;53.236;10.384;2022-12-18T04:18:02;25.50;;;14.60;;
16800;SDS011;8518;53.236;10.384;2022-12-18T04:20:28;23.70;;;13.33;;
16800;SDS011;8518;53.236;10.384;2022-12-18T04:22:54;22.10;;;13.67;;
16800;SDS011;8518;53.236;10.384;2022-12-18T04:25:20;23.80;;;14.40;;
16800;SDS011;8518;53.236;10.384;2022-12-18T04:27:46;25.13;;;15.60;;
16800;SDS011;8518;53.236;10.384;2022-12-18T04:30:11;26.73;;;15.53;;
16800;SDS011;8518;53.236;10.384;2022-12-18T04:32:37;27.97;;;14.97;;
16800;SDS011;8518;53.236;10.384;2022-12-18T04:35:03;24.83;;;14.07;;
16800;SDS011;8518;53.236;10.384;2022-12-18T04:37:31;30.47;;;15.73;;
16800;SDS011;8518;53.236;10.384;2022-12-18T04:39:57;27.13;;;14.80;;
16800;SDS011;8518;53.236;10.384;2022-12-18T04:42:22;25.17;;;14.97;;
16800;SDS011;8518;53.236;10.384;2022-12-18T04:44:48;22.43;;;13.63;;
16800;SDS011;8518;53.236;10.384;2022-12-18T04:47:14;27.07;;;14.97;;
16800;SDS011;8518;53.236;10.384;2022-12-18T04:49:39;27.77;;;15.80;;
16800;SDS011;8518;53.236;10.384;2022-12-18T04:52:05;25.10;;;14.13;;
16800;SDS011;8518;53.236;10.384;2022-12-18T04:54:31;23.97;;;14.37;;
16800;SDS011;8518;53.236;10.384;2022-12-18T04:56:56;25.87;;;14.60;;
16800;SDS011;8518;53.236;10.384;2022-12-18T04:59:22;21.93;;;13.63;;
16800;SDS011;8518;53.236;10.384;2022-12-18T05:01:48;24.13;;;15.17;;
16800;SDS011;8518;53.236;10.384;2022-12-18T05:04:13;21.50;;;13.37;;
16800;SDS011;8518;53.236;10.384;2022-12-18T05:06:39;24.57;;;14.17;;
16800;SDS011;8518;53.236;10.384;2022-12-18T05:09:05;26.13;;;14.57;;
16800;SDS011;8518;53.236;10.384;2022-12-18T05:11:30;24.30;;;13.70;;
16800;SDS011;8518;53.236;10.384;2022-12-18T05:13:56;22.87;;;14.03;;
16800;SDS011;8518;53.236;10.384;2022-12-18T05:16:21;27.07;;;15.07;;
16800;SDS011;8518;53.236;10.384;2022-12-18T05:18:47;29.60;;;15.33;;
16800;SDS011;8518;53.236;10.384;2022-12-18T05:21:13;24.03;;;14.03;;
16800;SDS011;8518;53.236;10.384;2022-12-18T05:23:38;26.10;;;15.70;;
16800;SDS011;8518;53.236;10.384;2022-12-18T05:26:05;24.37;;;13.87;;
16800;SDS011;8518;53.236;10.384;2022-12-18T05:28:33;24.73;;;14.70;;
16800;SDS011;8518;53.236;10.384;2022-12-18T05:31:00;27.83;;;14.97;;
16800;SDS011;8518;53.236;10.384;2022-12-18T05:33:29;26.33;;;15.47;;
16800;SDS011;8518;53.236;10.384;2022-12-18T05:35:57;23.17;;;14.97;;
16800;SDS011;8518;53.236;10.384;2022-12-18T05:38:25;24.60;;;14.83;;
16800;SDS011;8518;53.236;10.384;2022-12-18T05:40:52;23.10;;;14.77;;
16800;SDS011;8518;53.236;10.384;2022-12-18T05:43:19;26.20;;;13.67;;
16800;SDS011;8518;53.236;10.384;2022-12-18T05:45:46;22.70;;;13.83;;
16800;SDS011;8518;53.236;10.384;2022-12-18T05:48:13;22.40;;;13.77;;
16800;SDS011;8518;53.236;10.384;2022-12-18T05:50:39;23.73;;;13.80;;
16800;SDS011;8518;53.236;10.384;2022-12-18T05:53:06;22.13;;;13.53;;
16800;SDS011;8518;53.236;10.384;2022-12-18T05:55:35;23.33;;;13.97;;
16800;SDS011;8518;53.236;10.384;2022-12-18T05:58:03;22.80;;;13.67;;
16800;SDS011;8518;53.236;10.384;2022-12-18T06:00:29;24.03;;;15.13;;
16800;SDS011;8518;53.236;10.384;2022-12-18T06:02:56;24.30;;;13.37;;
16800;SDS011;8518;53.236;10.384;2022-12-18T06:05:22;21.90;;;13.43;;
16800;SDS011;8518;53.236;10.384;2022-12-18T06:07:48;26.03;;;14.43;;
16800;SDS011;8518;53.236;10.384;2022-12-18T06:10:14;27.33;;;15.57;;
16800;SDS011;8518;53.236;10.384;2022-12-18T06:12:39;26.43;;;14.30;;
16800;SDS011;8518;53.236;10.384;2022-12-18T06:15:05;24.20;;;14.27;;
16800;SDS011;8518;53.236;10.384;2022-12-18T06:17:31;24.27;;;14.63;;
16800;SDS011;8518;53.236;10.384;2022-12-18T06:19:58;27.87;;;15.00;;
16800;SDS011;8518;53.236;10.384;2022-12-18T06:22:24;25.47;;;12.43;;
16800;SDS011;8518;53.236;10.384;2022-12-18T06:24:50;24.90;;;14.93;;
16800;SDS011;8518;53.236;10.384;2022-12-18T06:27:15;31.93;;;15.30;;
16800;SDS011;8518;53.236;10.384;2022-12-18T06:29:41;25.10;;;15.00;;
16800;SDS011;8518;53.236;10.384;2022-12-18T06:32:07;22.13;;;13.77;;
16800;SDS011;8518;53.236;10.384;2022-12-18T06:34:33;26.77;;;14.33;;
16800;SDS011;8518;53.236;10.384;2022-12-18T06:36:59;23.50;;;13.50;;
16800;SDS011;8518;53.236;10.384;2022-12-18T06:39:26;24.77;;;14.70;;
16800;SDS011;8518;53.236;10.384;2022-12-18T06:41:52;23.43;;;14.00;;
16800;SDS011;8518;53.236;10.384;2022-12-18T06:44:19;24.10;;;14.57;;
16800;SDS011;8518;53.236;10.384;2022-12-18T06:46:44;26.23;;;14.53;;
16800;SDS011;8518;53.236;10.384;2022-12-18T06:49:13;26.37;;;14.83;;
16800;SDS011;8518;53.236;10.384;2022-12-18T06:51:40;24.37;;;14.03;;
16800;SDS011;8518;53.236;10.384;2022-12-18T06:54:06;24.83;;;13.37;;
16800;SDS011;8518;53.236;10.384;2022-12-18T06:56:32;26.77;;;14.07;;
16800;SDS011;8518;53.236;10.384;2022-12-18T06:58:58;27.10;;;14.60;;
16800;SDS011;8518;53.236;10.384;2022-12-18T07:01:24;28.33;;;14.87;;
16800;SDS011;8518;53.236;10.384;2022-12-18T07:03:53;26.80;;;15.43;;
16800;SDS011;8518;53.236;10.384;2022-12-18T07:06:20;25.13;;;14.97;;
16800;SDS011;8518;53.236;10.384;2022-12-18T07:08:48;25.23;;;14.80;;
16800;SDS011;8518;53.236;10.384;2022-12-18T07:11:14;23.33;;;13.53;;
16800;SDS011;8518;53.236;10.384;2022-12-18T07:13:41;25.53;;;15.13;;
16800;SDS011;8518;53.236;10.384;2022-12-18T07:16:08;27.23;;;14.87;;
16800;SDS011;8518;53.236;10.384;2022-12-18T07:18:39;25.40;;;15.07;;
16800;SDS011;8518;53.236;10.384;2022-12-18T07:21:05;23.23;;;14.60;;
16800;SDS011;8518;53.236;10.384;2022-12-18T07:23:32;24.97;;;14.67;;
16800;SDS011;8518;53.236;10.384;2022-12-18T07:26:06;27.67;;;16.00;;
16800;SDS011;8518;53.236;10.384;2022-12-18T07:28:36;25.67;;;14.97;;
16800;SDS011;8518;53.236;10.384;2022-12-18T07:31:07;22.87;;;14.13;;
16800;SDS011;8518;53.236;10.384;2022-12-18T07:33:36;24.70;;;13.53;;
16800;SDS011;8518;53.236;10.384;2022-12-18T07:36:03;26.53;;;13.87;;
16800;SDS011;8518;53.236;10.384;2022-12-18T07:38:30;25.70;;;15.27;;
16800;SDS011;8518;53.236;10.384;2022-12-18T07:41:00;24.97;;;14.90;;
16800;SDS011;8518;53.236;10.384;2022-12-18T07:43:29;27.57;;;14.90;;
16800;SDS011;8518;53.236;10.384;2022-12-18T07:45:55;24.37;;;14.57;;
16800;SDS011;8518;53.236;10.384;2022-12-18T07:48:23;26.93;;;14.63;;
16800;SDS011;8518;53.236;10.384;2022-12-18T07:50:52;24.07;;;14.23;;
16800;SDS011;8518;53.236;10.384;2022-12-18T07:53:17;23.97;;;13.97;;
16800;SDS011;8518;53.236;10.384;2022-12-18T07:55:43;26.93;;;13.67;;
16800;SDS011;8518;53.236;10.384;2022-12-18T07:58:09;22.40;;;12.37;;
16800;SDS011;8518;53.236;10.384;2022-12-18T08:00:35;24.23;;;13.60;;
16800;SDS011;8518;53.236;10.384;2022-12-18T08:03:01;26.10;;;13.60;;
16800;SDS011;8518;53.236;10.384;2022-12-18T08:05:27;19.83;;;13.00;;
16800;SDS011;8518;53.236;10.384;2022-12-18T08:07:54;22.43;;;13.43;;
16800;SDS011;8518;53.236;10.384;2022-12-18T08:10:20;23.27;;;13.30;;
16800;SDS011;8518;53.236;10.384;2022-12-18T08:12:48;21.03;;;12.50;;
16800;SDS011;8518;53.236;10.384;2022-12-18T08:15:15;21.17;;;12.47;;
16800;SDS011;8518;53.236;10.384;2022-12-18T08:17:41;18.17;;;11.80;;
16800;SDS011;8518;53.236;10.384;2022-12-18T08:20:07;19.23;;;12.43;;
16800;SDS011;8518;53.236;10.384;2022-12-18T08:22:34;20.67;;;13.03;;
16800;SDS011;8518;53.236;10.384;2022-12-18T08:25:04;19.77;;;12.50;;
16800;SDS011;8518;53.236;10.384;2022-12-18T08:27:30;19.83;;;12.07;;
16800;SDS011;8518;53.236;10.384;2022-12-18T08:29:56;21.00;;;12.43;;
16800;SDS011;8518;53.236;10.384;2022-12-18T08:32:23;18.93;;;11.37;;
16800;SDS011;8518;53.236;10.384;2022-12-18T08:34:49;21.93;;;11.73;;
16800;SDS011;8518;53.236;10.384;2022-12-18T08:37:14;21.80;;;12.97;;
16800;SDS011;8518;53.236;10.384;2022-12-18T08:39:40;20.07;;;12.50;;
16800;SDS011;8518;53.236;10.384;2022-12-18T08:42:06;19.17;;;12.07;;
16800;SDS011;8518;53.236;10.384;2022-12-18T08:44:50;18.20;;;11.83;;
16800;SDS011;8518;53.236;10.384;2022-12-18T08:47:16;18.07;;;11.93;;
16800;SDS011;8518;53.236;10.384;2022-12-18T08:49:41;19.23;;;12.00;;
16800;SDS011;8518;53.236;10.384;2022-12-18T08:52:07;17.07;;;10.80;;
16800;SDS011;8518;53.236;10.384;2022-12-18T08:54:33;16.43;;;11.17;;
16800;SDS011;8518;53.236;10.384;2022-12-18T08:56:58;16.87;;;11.27;;
16800;SDS011;8518;53.236;10.384;2022-12-18T08:59:24;16.50;;;11.17;;
16800;SDS011;8518;53.236;10.384;2022-12-18T09:01:50;17.20;;;11.27;;
16800;SDS011;8518;53.236;10.384;2022-12-18T09:04:19;17.93;;;12.30;;
16800;SDS011;8518;53.236;10.384;2022-12-18T09:06:47;20.80;;;12.43;;
16800;SDS011;8518;53.236;10.384;2022-12-18T09:09:13;16.67;;;11.80;;
16800;SDS011;8518;53.236;10.384;2022-12-18T09:11:39;19.57;;;13.27;;
16800;SDS011;8518;53.236;10.384;2022-12-18T09:14:05;17.73;;;12.07;;
16800;SDS011;8518;53.236;10.384;2022-12-18T09:16:31;18.10;;;12.13;;
16800;SDS011;8518;53.236;10.384;2022-12-18T09:18:57;18.87;;;12.87;;
16800;SDS011;8518;53.236;10.384;2022-12-18T09:21:27;17.20;;;11.70;;
16800;SDS011;8518;53.236;10.384;2022-12-18T09:23:58;18.27;;;11.77;;
16800;SDS011;8518;53.236;10.384;2022-12-18T09:26:24;16.43;;;11.73;;
16800;SDS011;8518;53.236;10.384;2022-12-18T09:28:50;15.93;;;11.60;;
16800;SDS011;8518;53.236;10.384;2022-12-18T09:31:17;19.13;;;12.33;;
16800;SDS011;8518;53.236;10.384;2022-12-18T09:33:44;17.87;;;12.47;;
16800;SDS011;8518;53.236;10.384;2022-12-18T09:36:13;19.87;;;13.40;;
16800;SDS011;8518;53.236;10.384;2022-12-18T09:38:40;18.37;;;12.70;;
16800;SDS011;8518;53.236;10.384;2022-12-18T09:43:54;16.70;;;12.50;;
16800;SDS011;8518;53.236;10.384;2022-12-18T09:46:25;18.47;;;12.23;;
16800;SDS011;8518;53.236;10.384;2022-12-18T09:48:55;16.47;;;11.40;;
16800;SDS011;8518;53.236;10.384;2022-12-18T09:51:26;16.43;;;12.03;;
16800;SDS011;8518;53.236;10.384;2022-12-18T09:54:06;15.20;;;11.97;;
16800;SDS011;8518;53.236;10.384;2022-12-18T09:56:42;16.20;;;11.57;;
16800;SDS011;8518;53.236;10.384;2022-12-18T09:59:29;18.00;;;12.20;;
16800;SDS011;8518;53.236;10.384;2022-12-18T10:02:14;17.10;;;12.30;;
16800;SDS011;8518;53.236;10.384;2022-12-18T10:04:42;15.50;;;11.33;;
16800;SDS011;8518;53.236;10.384;2022-12-18T10:07:10;15.87;;;11.73;;
16800;SDS011;8518;53.236;10.384;2022-12-18T10:10:03;16.80;;;12.03;;
16800;SDS011;8518;53.236;10.384;2022-12-18T10:15:24;15.63;;;12.20;;
16800;SDS011;8518;53.236;10.384;2022-12-18T10:18:14;16.53;;;12.10;;
16800;SDS011;8518;53.236;10.384;2022-12-18T10:20:51;17.03;;;12.33;;
16800;SDS011;8518;53.236;10.384;2022-12-18T10:26:02;16.13;;;11.87;;
16800;SDS011;8518;53.236;10.384;2022-12-18T10:28:35;18.03;;;12.73;;
16800;SDS011;8518;53.236;10.384;2022-12-18T10:31:07;14.67;;;10.73;;
16800;SDS011;8518;53.236;10.384;2022-12-18T10:33:44;16.73;;;11.83;;
16800;SDS011;8518;53.236;10.384;2022-12-18T10:36:10;19.40;;;12.80;;
16800;SDS011;8518;53.236;10.384;2022-12-18T10:38:36;17.60;;;12.20;;
16800;SDS011;8518;53.236;10.384;2022-12-18T10:41:05;18.40;;;11.60;;
16800;SDS011;8518;53.236;10.384;2022-12-18T10:44:10;15.97;;;11.83;;
16800;SDS011;8518;53.236;10.384;2022-12-18T10:46:35;17.07;;;11.83;;
16800;SDS011;8518;53.236;10.384;2022-12-18T10:49:01;16.80;;;12.37;;
16800;SDS011;8518;53.236;10.384;2022-12-18T10:51:31;18.47;;;11.83;;
16800;SDS011;8518;53.236;10.384;2022-12-18T10:54:00;18.93;;;12.60;;
16800;SDS011;8518;53.236;10.384;2022-12-18T10:56:30;18.37;;;12.47;;
16800;SDS011;8518;53.236;10.384;2022-12-18T10:59:04;18.57;;;11.67;;
16800;SDS011;8518;53.236;10.384;2022-12-18T11:01:50;18.23;;;11.70;;
16800;SDS011;8518;53.236;10.384;2022-12-18T11:04:27;19.47;;;12.93;;
16800;SDS011;8518;53.236;10.384;2022-12-18T11:07:04;18.30;;;12.77;;
16800;SDS011;8518;53.236;10.384;2022-12-18T11:09:33;19.30;;;12.97;;
16800;SDS011;8518;53.236;10.384;2022-12-18T11:12:04;18.27;;;12.57;;
16800;SDS011;8518;53.236;10.384;2022-12-18T11:14:52;16.70;;;11.83;;
16800;SDS011;8518;53.236;10.384;2022-12-18T11:20:39;19.20;;;12.37;;
16800;SDS011;8518;53.236;10.384;2022-12-18T11:23:05;20.57;;;12.73;;
16800;SDS011;8518;53.236;10.384;2022-12-18T11:25:38;20.97;;;12.40;;
16800;SDS011;8518;53.236;10.384;2022-12-18T11:31:36;16.87;;;12.00;;
16800;SDS011;8518;53.236;10.384;2022-12-18T11:33:58;19.57;;;12.57;;
16800;SDS011;8518;53.236;10.384;2022-12-18T11:36:39;20.87;;;12.70;;
16800;SDS011;8518;53.236;10.384;2022-12-18T11:42:10;17.23;;;10.90;;
16800;SDS011;8518;53.236;10.384;2022-12-18T11:44:49;18.47;;;12.13;;
16800;SDS011;8518;53.236;10.384;2022-12-18T11:50:00;18.83;;;12.50;;
16800;SDS011;8518;53.236;10.384;2022-12-18T11:52:38;18.77;;;13.07;;
16800;SDS011;8518;53.236;10.384;2022-12-18T11:55:15;18.77;;;12.70;;
16800;SDS011;8518;53.236;10.384;2022-12-18T12:00:36;21.70;;;13.97;;
16800;SDS011;8518;53.236;10.384;2022-12-18T12:03:24;18.40;;;12.80;;
16800;SDS011;8518;53.236;10.384;2022-12-18T12:11:46;21.47;;;12.90;;
16800;SDS011;8518;53.236;10.384;2022-12-18T12:14:31;21.93;;;12.57;;
16800;SDS011;8518;53.236;10.384;2022-12-18T12:22:50;20.70;;;12.53;;
16800;SDS011;8518;53.236;10.384;2022-12-18T12:25:41;21.33;;;13.40;;
16800;SDS011;8518;53.236;10.384;2022-12-18T12:28:30;20.53;;;12.53;;
16800;SDS011;8518;53.236;10.384;2022-12-18T12:39:14;20.13;;;12.00;;
16800;SDS011;8518;53.236;10.384;2022-12-18T12:41:44;21.50;;;13.43;;
16800;SDS011;8518;53.236;10.384;2022-12-18T12:44:51;22.27;;;13.43;;
16800;SDS011;8518;53.236;10.384;2022-12-18T12:47:20;23.07;;;13.73;;
16800;SDS011;8518;53.236;10.384;2022-12-18T12:49:57;21.93;;;13.77;;
16800;SDS011;8518;53.236;10.384;2022-12-18T12:55:03;23.07;;;12.93;;
16800;SDS011;8518;53.236;10.384;2022-12-18T12:57:36;24.60;;;13.73;;
16800;SDS011;8518;53.236;10.384;2022-12-18T13:00:13;27.97;;;15.10;;
16800;SDS011;8518;53.236;10.384;2022-12-18T13:02:52;24.03;;;14.60;;
16800;SDS011;8518;53.236;10.384;2022-12-18T13:08:27;29.33;;;15.00;;
16800;SDS011;8518;53.236;10.384;2022-12-18T13:10:55;24.43;;;13.97;;
16800;SDS011;8518;53.236;10.384;2022-12-18T13:13:50;26.73;;;14.80;;
16800;SDS011;8518;53.236;10.384;2022-12-18T13:16:23;28.33;;;16.17;;
16800;SDS011;8518;53.236;10.384;2022-12-18T13:18:54;25.53;;;14.83;;
16800;SDS011;8518;53.236;10.384;2022-12-18T13:21:25;28.30;;;15.80;;
16800;SDS011;8518;53.236;10.384;2022-12-18T13:23:56;26.83;;;15.17;;
16800;SDS011;8518;53.236;10.384;2022-12-18T13:26:39;29.23;;;15.77;;
16800;SDS011;8518;53.236;10.384;2022-12-18T13:29:05;27.40;;;15.53;;
16800;SDS011;8518;53.236;10.384;2022-12-18T13:34:22;27.73;;;15.17;;
16800;SDS011;8518;53.236;10.384;2022-12-18T13:36:50;27.83;;;16.10;;
16800;SDS011;8518;53.236;10.384;2022-12-18T13:41:50;33.23;;;16.67;;
16800;SDS011;8518;53.236;10.384;2022-12-18T13:47:00;32.07;;;18.17;;
16800;SDS011;8518;53.236;10.384;2022-12-18T13:49:32;32.17;;;16.43;;
16800;SDS011;8518;53.236;10.384;2022-12-18T13:52:02;29.10;;;15.77;;
16800;SDS011;8518;53.236;10.384;2022-12-18T13:54:39;31.73;;;17.57;;
16800;SDS011;8518;53.236;10.384;2022-12-18T13:57:24;33.27;;;16.63;;
16800;SDS011;8518;53.236;10.384;2022-12-18T13:59:50;30.20;;;17.10;;
16800;SDS011;8518;53.236;10.384;2022-12-18T14:02:17;29.90;;;16.27;;
16800;SDS011;8518;53.236;10.384;2022-12-18T14:04:46;32.63;;;16.33;;
16800;SDS011;8518;53.236;10.384;2022-12-18T14:07:14;33.10;;;18.03;;
16800;SDS011;8518;53.236;10.384;2022-12-18T14:09:44;33.27;;;17.23;;
16800;SDS011;8518;53.236;10.384;2022-12-18T14:12:20;33.67;;;17.20;;
16800;SDS011;8518;53.236;10.384;2022-12-18T14:17:52;32.70;;;15.90;;
16800;SDS011;8518;53.236;10.384;2022-12-18T14:20:20;33.00;;;17.30;;
16800;SDS011;8518;53.236;10.384;2022-12-18T14:22:46;33.20;;;16.93;;
16800;SDS011;8518;53.236;10.384;2022-12-18T14:27:48;33.67;;;16.87;;
16800;SDS011;8518;53.236;10.384;2022-12-18T14:30:27;30.93;;;17.33;;
16800;SDS011;8518;53.236;10.384;2022-12-18T14:33:03;36.90;;;16.97;;
16800;SDS011;8518;53.236;10.384;2022-12-18T14:35:36;34.37;;;17.67;;
16800;SDS011;8518;53.236;10.384;2022-12-18T14:38:10;31.60;;;16.40;;
16800;SDS011;8518;53.236;10.384;2022-12-18T14:40:55;30.80;;;16.53;;
16800;SDS011;8518;53.236;10.384;2022-12-18T14:43:29;35.80;;;16.10;;
16800;SDS011;8518;53.236;10.384;2022-12-18T14:45:59;33.07;;;17.00;;
16800;SDS011;8518;53.236;10.384;2022-12-18T14:48:38;32.27;;;16.60;;
16800;SDS011;8518;53.236;10.384;2022-12-18T14:51:15;34.10;;;15.57;;
16800;SDS011;8518;53.236;10.384;2022-12-18T14:53:47;31.50;;;15.33;;
16800;SDS011;8518;53.236;10.384;2022-12-18T14:58:49;28.87;;;15.57;;
16800;SDS011;8518;53.236;10.384;2022-12-18T15:01:37;30.13;;;15.73;;
16800;SDS011;8518;53.236;10.384;2022-12-18T15:07:08;28.70;;;15.50;;
16800;SDS011;8518;53.236;10.384;2022-12-18T15:09:38;29.83;;;16.50;;
16800;SDS011;8518;53.236;10.384;2022-12-18T15:12:15;31.20;;;16.17;;
16800;SDS011;8518;53.236;10.384;2022-12-18T15:14:50;26.03;;;14.30;;
16800;SDS011;8518;53.236;10.384;2022-12-18T15:17:19;29.63;;;15.77;;
16800;SDS011;8518;53.236;10.384;2022-12-18T15:19:48;24.03;;;14.33;;
16800;SDS011;8518;53.236;10.384;2022-12-18T15:22:20;32.17;;;14.70;;
16800;SDS011;8518;53.236;10.384;2022-12-18T15:24:46;30.03;;;15.57;;
16800;SDS011;8518;53.236;10.384;2022-12-18T15:32:38;31.50;;;15.90;;
16800;SDS011;8518;53.236;10.384;2022-12-18T15:37:38;28.73;;;15.87;;
16800;SDS011;8518;53.236;10.384;2022-12-18T15:40:11;24.87;;;14.13;;
16800;SDS011;8518;53.236;10.384;2022-12-18T15:42:38;27.00;;;15.37;;
16800;SDS011;8518;53.236;10.384;2022-12-18T15:45:23;34.63;;;16.53;;
16800;SDS011;8518;53.236;10.384;2022-12-18T15:47:48;29.57;;;14.83;;
16800;SDS011;8518;53.236;10.384;2022-12-18T15:50:17;25.67;;;14.63;;
16800;SDS011;8518;53.236;10.384;2022-12-18T15:52:44;26.23;;;15.20;;
16800;SDS011;8518;53.236;10.384;2022-12-18T15:55:14;27.00;;;15.07;;
16800;SDS011;8518;53.236;10.384;2022-12-18T15:58:03;27.23;;;14.10;;
16800;SDS011;8518;53.236;10.384;2022-12-18T16:00:34;27.63;;;15.47;;
16800;SDS011;8518;53.236;10.384;2022-12-18T16:03:01;26.97;;;14.77;;
16800;SDS011;8518;53.236;10.384;2022-12-18T16:05:28;28.33;;;15.53;;
16800;SDS011;8518;53.236;10.384;2022-12-18T16:07:54;30.47;;;15.97;;
16800;SDS011;8518;53.236;10.384;2022-12-18T16:10:19;26.70;;;14.73;;